ESSD/BLE METAR and TAF weather

Enter ICAO airport designator
Station Type Date Time Source
ESSD METAR 2021/04/14 20:20 UTC NOAA

ESSD 142020Z AUTO 27006KT 9999 NCD 01/M04 Q1029


Station Type Date Time Source
ESSD Decoded METAR 2021/04/14 20:20 UTC NOAA

Borlange, Sweden (ESSD) 60-26N 015-31E 0M
Apr 14, 2021 - 04:20 PM EDT / 2021.04.14 2020 UTC
Wind: from the W (270 degrees) at 7 MPH (6 KT):0
Visibility: greater than 7 mile(s):0
Temperature: 33 F (1 C)
Windchill: 26 F (-3 C):1
Dew Point: 24 F (-4 C)
Relative Humidity: 69%
Pressure (altimeter): 30.39 in. Hg (1029 hPa)
ob: ESSD 142020Z AUTO 27006KT 9999 NCD 01/M04 Q1029
cycle: 20

Station Type Date Time Source
ESSD TAF 2018/05/02 04:48 UTC NOAA

TAF TAF ESSD 020320Z 0204/0412 27008KT 9999 BKN019 PROB40 0204/0209 BKN006

Example: see airport list